MDT,Max TemperatureF,Mean TemperatureF,Min TemperatureF,Max Dew PointF,MeanDew PointF,Min DewpointF,Max Humidity, Mean Humidity, Min Humidity, Max Sea Level PressureIn, Mean Sea Level PressureIn, Min Sea Level PressureIn, Max VisibilityMiles, Mean VisibilityMiles, Min VisibilityMiles, Max Wind SpeedMPH, Mean Wind SpeedMPH, Max Gust SpeedMPH,PrecipitationIn, CloudCover, Events, WindDirDegrees
2012-6-1,75,61,47,48,44,37,80,55,29,29.84,29.81,29.78,10,10,10,25,11,33,0.00,2,,297
2012-6-2,83,64,45,59,48,40,82,57,31,29.83,29.71,29.57,10,10,10,29,11,36,0.16,2,Rain-Thunderstorm,179
2012-6-3,77,64,50,59,51,43,100,65,29,29.93,29.78,29.64,10,10,6,22,10,26,0.00,1,Rain,300
2012-6-4,87,68,48,55,50,43,86,59,32,29.98,29.92,29.85,10,10,10,21,10,25,0.00,0,,139
2012-6-5,86,75,63,55,51,48,63,49,34,29.86,29.77,29.70,10,10,10,37,23,45,0.00,0,,123
2012-6-6,84,72,60,59,52,42,73,51,29,29.92,29.78,29.69,10,10,10,38,13,46,0.09,1,Rain-Thunderstorm,216
2012-6-7,66,58,49,57,52,43,100,76,51,30.04,29.97,29.91,10,8,0,23,11,30,0.91,5,Fog-Rain-Thunderstorm,322
2012-6-8,77,62,47,62,53,46,100,75,49,29.94,29.82,29.50,10,6,0,17,9,22,0.00,1,Fog,116
2012-6-9,78,65,52,61,56,43,97,68,38,29.70,29.50,29.37,10,10,4,30,14,36,0.16,6,Rain-Thunderstorm,309
2012-6-10,68,59,50,50,44,35,96,64,32,29.67,29.63,29.59,10,10,10,32,19,39,0.10,6,Rain,246
2012-6-11,64,53,41,49,41,37,89,64,39,30.15,29.94,29.65,10,10,9,35,19,44,0.01,5,Rain,303
2012-6-12,78,59,40,53,45,37,89,60,30,30.14,30.01,29.86,10,10,10,33,11,43,0.02,1,Rain,194
2012-6-13,82,66,50,56,52,47,89,62,34,29.84,29.69,29.58,10,10,10,25,12,32,T,2,Rain-Thunderstorm,180
2012-6-14,76,63,49,52,48,46,86,62,38,29.88,29.76,29.65,10,10,10,30,15,37,T,2,,280
2012-6-15,75,60,45,56,53,44,100,73,46,30.02,29.95,29.84,10,8,1,31,10,39,0.73,6,Rain-Thunderstorm,120
2012-6-16,73,60,46,55,47,42,100,67,33,30.07,29.97,29.81,10,10,7,26,13,32,0.01,1,,282
2012-6-17,83,68,53,53,49,46,80,56,31,29.78,29.52,29.39,10,10,10,28,11,33,0.00,2,,259
2012-6-18,79,64,49,56,48,44,89,60,30,29.64,29.52,29.45,10,10,8,23,12,29,0.10,1,Rain,302
2012-6-19,68,61,53,57,54,50,100,77,53,29.81,29.70,29.59,10,10,6,24,8,29,0.01,4,Rain,39
2012-6-20,70,60,49,54,48,43,100,70,40,30.06,29.90,29.77,10,10,6,29,14,37,0.05,2,Rain,283
2012-6-21,76,61,46,51,47,44,93,63,33,30.11,30.07,30.02,10,10,10,16,8,22,0.00,0,,313
2012-6-22,77,63,49,55,51,45,86,62,38,30.05,29.90,29.74,10,10,10,20,12,25,0.00,0,,101
2012-6-23,79,68,56,64,59,54,93,75,56,29.92,29.81,29.71,10,10,10,23,14,30,0.00,2,Thunderstorm,59
2012-6-24,81,71,60,61,56,51,93,71,48,30.11,30.01,29.94,10,10,10,25,17,30,0.00,4,,94
2012-6-25,87,73,59,67,62,48,79,65,51,30.01,29.89,29.69,10,10,10,31,19,39,0.00,4,,138
2012-6-26,98,81,64,73,65,51,93,66,39,29.66,29.49,29.34,10,10,8,33,17,41,0.00,0,,160
2012-6-27,85,67,49,49,40,33,72,44,16,29.95,29.79,29.57,10,10,10,25,10,33,0.00,0,,306
2012-6-28,90,69,47,51,44,38,71,46,20,29.99,29.93,29.87,10,10,10,15,6,21,0.00,0,,8
2012-6-29,89,69,49,59,52,47,83,56,29,29.90,29.84,29.78,10,10,10,17,9,23,0.00,0,,104
2012-6-30,91,75,58,62,56,46,90,57,23,29.87,29.83,29.79,10,10,10,16,8,20,0.00,0,,35